Catàleg de serveis del Meteocat
Campanya meteocatpedra

Dades de l'estació automàtica Montserrat - Sant Dimes

?
?
Resum diari 21:30 TU
Dades diàries de l'estació meteorològica
Temperatura mitjana 6.1 °C
Temperatura màxima 9.0 °C 17:45 TU
Temperatura mínima 2.7 °C 4:42 TU
Humitat relativa mitjana 78%
Precipitació acumulada 0.0 mm
Ratxa màxima del vent (6 m) 48.2 km/h - 251º 18:44 TU
Irradiació solar global 4.4 MJ/m2

El tram horari està expressat en Temps Universal (TU). Cal sumar una hora en horari d'hivern i dues en horari d'estiu per passar a l'hora oficial.

Montserrat - Sant Dimes

Metadades estació meteorol´gica
Municipi Monistrol de Montserrat
Comarca Bages
Altitud 916 m
Data alta 02.01.2003
Estat actual Operativa
Dades de període
Període
TU
TM
°C
TX
°C
TN
°C
HRM
%
PPT
mm
VVM (6 m)
km/h
DVM (6 m)
graus
VVX (6 m)
km/h
RS
W/m2
00:00 - 00:30 6.8 7.2 6.1 63 0.0 7.2 289 21.6 0
00:30 - 01:00 6.4 7.0 5.8 66 0.0 5.8 288 19.4 0
01:00 - 01:30 6.2 6.5 5.9 68 0.0 9.7 306 23.0 0
01:30 - 02:00 5.8 6.2 5.2 71 0.0 6.1 253 33.1 0
02:00 - 02:30 5.4 6.2 4.4 74 0.0 7.2 321 17.6 0
02:30 - 03:00 5.5 5.9 4.8 73 0.0 9.0 306 20.2 0
03:00 - 03:30 5.3 5.8 4.4 75 0.0 14.8 307 24.8 0
03:30 - 04:00 4.0 5.1 3.0 85 0.0 15.5 318 25.9 0
04:00 - 04:30 2.8 2.9 2.7 96 0.0 15.8 327 32.0 0
04:30 - 05:00 2.8 3.0 2.7 98 0.0 13.7 325 20.2 0
05:00 - 05:30 3.4 3.7 2.8 97 0.0 14.4 329 23.0 0
05:30 - 06:00 4.0 4.9 3.7 93 0.0 18.7 345 25.2 0
06:00 - 06:30 5.5 5.8 5.0 77 0.0 9.0 16 15.1 0
06:30 - 07:00 5.7 5.7 5.6 79 0.0 8.3 97 14.4 2
07:00 - 07:30 5.5 5.6 5.4 82 0.0 7.2 146 14.8 11
07:30 - 08:00 5.3 5.4 5.2 82 0.0 9.0 145 14.0 13
08:00 - 08:30 5.3 5.4 5.2 90 0.0 7.9 164 14.4 16
08:30 - 09:00 5.3 5.4 5.2 90 0.0 9.4 148 14.8 30
09:00 - 09:30 5.3 5.6 5.1 92 0.0 8.3 146 14.8 53
09:30 - 10:00 5.5 5.8 5.4 91 0.0 8.3 140 15.1 38
10:00 - 10:30 5.6 5.7 5.5 91 0.0 3.2 160 8.6 33
10:30 - 11:00 5.8 6.0 5.7 90 0.0 5.4 189 13.0 64
11:00 - 11:30 6.2 6.5 5.9 88 0.0 3.2 174 7.9 135
11:30 - 12:00 6.7 7.0 6.2 85 0.0 1.8 131 7.2 214
12:00 - 12:30 6.6 7.2 6.0 85 0.0 1.4 331 7.2 209
12:30 - 13:00 6.9 7.7 6.1 85 0.0 6.5 225 17.3 303
13:00 - 13:30 7.6 8.3 7.0 80 0.0 4.0 207 14.8 382
13:30 - 14:00 7.2 7.4 6.9 82 0.0 8.3 221 23.8 223
14:00 - 14:30 7.1 7.4 6.7 81 0.0 5.0 276 22.0 334
14:30 - 15:00 7.6 7.8 7.5 78 0.0 9.0 244 25.9 253
15:00 - 15:30 7.5 7.7 7.2 76 0.0 4.7 294 19.8 156
15:30 - 16:00 6.9 7.2 6.7 77 0.0 5.4 84 15.8 36
16:00 - 16:30 7.2 8.2 6.6 70 0.0 10.4 308 29.9 11
16:30 - 17:00 6.8 7.3 6.2 78 0.0 11.5 349 41.8 0
17:00 - 17:30 7.7 8.1 7.3 72 0.0 11.9 318 33.1 0
17:30 - 18:00 8.5 9.0 7.8 64 0.0 11.9 305 42.1 0
18:00 - 18:30 7.8 8.3 7.3 67 0.0 16.9 277 39.2 0
18:30 - 19:00 7.3 7.7 6.9 66 0.0 17.3 278 48.2 0
19:00 - 19:30 6.7 7.6 6.1 72 0.0 6.8 56 25.6 0
19:30 - 20:00 6.2 6.8 6.0 76 0.0 5.4 170 24.8 0
20:00 - 20:30 6.4 6.7 6.3 70 0.0 7.9 299 29.9 0
20:30 - 21:00 6.3 6.7 5.9 69 0.0 4.0 335 18.7 0
21:00 - 21:30 7.4 8.4 6.0 55 0.0 6.8 268 22.0 0
21:30 - 22:00 8.4 9.0 8.1 43 0.0 11.2 271 27.4 0

Les dades en taronja només han passat un control de qualitat automàtic. Resta pendent la seva validació definitiva.